Terminal Aerodrome Forecast
Issued by NWS Topeka, KS

Home | Current Version | Previous Version | Text Only | Print | Product List | Glossary On
Versions: 1 2 3 4 5 6 7 8 9 10 11 12 13 14 15 16 17 18 19 20 21 22 23 24 25 26 27 28
000
FTUS43 KTOP 271720
TAFTOP
TAF
KTOP 271720Z 2718/2818 15012G20KT P6SM VCTS SCT030 SCT110CB
     FM271900 15013G23KT P6SM SCT110
     FM280700 17010KT P6SM VCTS SCT060CB BKN150
      TEMPO 2810/2814 VRB15G25KT 3SM TSRA BKN030CB=

USA.gov is the U.S. government's official web portal to all federal, state and local government web resources and services.